Jamesville, New York
Current Conditions -  °F | °C
As of 2:54 AM on Thursday 23 Oct 2014 (Local Time) from KSYR Reporting Station
Light Rain Light Rain  
Wind Chill: 43°   Ceiling: 13000
Heat Index: 45°   Visibility: 10mi
Dew Point: 40°   Wind: 5mph
Humidity: 82%   Direction: 300°WNW
Pressure: 30.03"   Gusts: NA
Location:  42.99°N, 76.07°W
Report Text: KSYR 230654Z 30004KT 10SM -RA SCT075 BKN130 07/04 A3003 RMK AO2 SLP167 P0000 T00720044
Loading
Personal Weather Stations






























Interactive Weather Map
Tropical Storm Tracking
New forecast layout! Learn more

10-Day Weather Forecast

Advertisements
Track Severe Weather on mobile